North Charleroi, Pennsylvania
Current Conditions -  °F | °C
As of 10:53 AM on Sunday 21 Dec 2014 (Local Time) from KAGC Reporting Station
Overcast Overcast  
Wind Chill: 30°   Ceiling: 4500
Heat Index: 30°   Visibility: 8mi
Dew Point: 18°   Wind: 0mph
Humidity: 61%   Direction: NA
Pressure: 30.31"   Gusts: NA
Location:  40.1402°N, 79.9469°W
Report Text: KAGC 211553Z 00000KT 8SM OVC045 M01/M08 A3031 RMK AO2 SLP283 T10111078
Loading
Personal Weather Stations






























Interactive Weather Map New forecast layout! Learn more

10-Day Weather Forecast

Advertisements
Track Severe Weather on mobile